sensor_id;sensor_type;location;lat;lon;timestamp;P1;durP1;ratioP1;P2;durP2;ratioP2
66139;SDS011;52945;51.908;8.364;2022-11-23T00:01:45;1.45;;;0.95;;
66139;SDS011;52945;51.908;8.364;2022-11-23T00:04:47;0.80;;;0.80;;
66139;SDS011;52945;51.908;8.364;2022-11-23T00:07:47;1.20;;;1.10;;
66139;SDS011;52945;51.908;8.364;2022-11-23T00:10:49;2.72;;;0.80;;
66139;SDS011;52945;51.908;8.364;2022-11-23T00:13:49;1.88;;;1.15;;
66139;SDS011;52945;51.908;8.364;2022-11-23T00:16:50;1.48;;;0.80;;
66139;SDS011;52945;51.908;8.364;2022-11-23T00:19:51;1.77;;;0.98;;
66139;SDS011;52945;51.908;8.364;2022-11-23T00:22:52;1.88;;;1.00;;
66139;SDS011;52945;51.908;8.364;2022-11-23T00:25:52;3.13;;;1.10;;
66139;SDS011;52945;51.908;8.364;2022-11-23T00:28:53;1.73;;;0.95;;
66139;SDS011;52945;51.908;8.364;2022-11-23T00:31:53;1.25;;;0.90;;
66139;SDS011;52945;51.908;8.364;2022-11-23T00:34:54;1.95;;;0.82;;
66139;SDS011;52945;51.908;8.364;2022-11-23T00:37:55;1.27;;;1.00;;
66139;SDS011;52945;51.908;8.364;2022-11-23T00:40:56;1.10;;;1.00;;
66139;SDS011;52945;51.908;8.364;2022-11-23T00:44:00;3.25;;;1.23;;
66139;SDS011;52945;51.908;8.364;2022-11-23T00:47:01;1.50;;;0.82;;
66139;SDS011;52945;51.908;8.364;2022-11-23T00:50:02;0.75;;;0.73;;
66139;SDS011;52945;51.908;8.364;2022-11-23T00:53:03;7.55;;;1.38;;
66139;SDS011;52945;51.908;8.364;2022-11-23T00:56:03;1.65;;;0.75;;
66139;SDS011;52945;51.908;8.364;2022-11-23T00:59:04;2.38;;;0.93;;
66139;SDS011;52945;51.908;8.364;2022-11-23T01:02:05;2.88;;;0.85;;
66139;SDS011;52945;51.908;8.364;2022-11-23T01:05:05;2.13;;;0.95;;
66139;SDS011;52945;51.908;8.364;2022-11-23T01:08:06;1.77;;;0.68;;
66139;SDS011;52945;51.908;8.364;2022-11-23T01:11:08;3.35;;;0.73;;
66139;SDS011;52945;51.908;8.364;2022-11-23T01:14:11;4.53;;;1.00;;
66139;SDS011;52945;51.908;8.364;2022-11-23T01:17:12;2.17;;;0.95;;
66139;SDS011;52945;51.908;8.364;2022-11-23T01:20:12;2.58;;;0.82;;
66139;SDS011;52945;51.908;8.364;2022-11-23T01:23:13;2.28;;;0.98;;
66139;SDS011;52945;51.908;8.364;2022-11-23T01:26:14;1.02;;;0.93;;
66139;SDS011;52945;51.908;8.364;2022-11-23T01:29:15;3.28;;;1.15;;
66139;SDS011;52945;51.908;8.364;2022-11-23T01:32:15;3.83;;;0.95;;
66139;SDS011;52945;51.908;8.364;2022-11-23T01:35:16;4.93;;;0.68;;
66139;SDS011;52945;51.908;8.364;2022-11-23T01:38:16;2.70;;;0.93;;
66139;SDS011;52945;51.908;8.364;2022-11-23T01:41:18;4.15;;;0.80;;
66139;SDS011;52945;51.908;8.364;2022-11-23T01:47:29;4.13;;;1.17;;
66139;SDS011;52945;51.908;8.364;2022-11-23T01:50:29;2.30;;;0.98;;
66139;SDS011;52945;51.908;8.364;2022-11-23T01:53:30;3.25;;;1.05;;
66139;SDS011;52945;51.908;8.364;2022-11-23T01:56:34;2.33;;;0.55;;
66139;SDS011;52945;51.908;8.364;2022-11-23T01:59:40;4.93;;;0.90;;
66139;SDS011;52945;51.908;8.364;2022-11-23T02:02:41;2.80;;;0.77;;
66139;SDS011;52945;51.908;8.364;2022-11-23T02:05:50;1.45;;;0.90;;
66139;SDS011;52945;51.908;8.364;2022-11-23T02:08:58;2.15;;;0.70;;
66139;SDS011;52945;51.908;8.364;2022-11-23T02:11:59;2.17;;;0.88;;
66139;SDS011;52945;51.908;8.364;2022-11-23T02:15:00;4.43;;;0.90;;
66139;SDS011;52945;51.908;8.364;2022-11-23T02:18:02;1.63;;;0.85;;
66139;SDS011;52945;51.908;8.364;2022-11-23T02:21:05;3.85;;;0.73;;
66139;SDS011;52945;51.908;8.364;2022-11-23T02:24:16;2.45;;;0.60;;
66139;SDS011;52945;51.908;8.364;2022-11-23T02:27:39;2.42;;;0.70;;
66139;SDS011;52945;51.908;8.364;2022-11-23T02:30:41;0.60;;;0.60;;
66139;SDS011;52945;51.908;8.364;2022-11-23T02:33:44;0.90;;;0.60;;
66139;SDS011;52945;51.908;8.364;2022-11-23T02:39:47;1.45;;;0.70;;
66139;SDS011;52945;51.908;8.364;2022-11-23T02:42:50;2.38;;;0.80;;
66139;SDS011;52945;51.908;8.364;2022-11-23T02:45:55;1.90;;;0.73;;
66139;SDS011;52945;51.908;8.364;2022-11-23T02:48:57;4.63;;;0.80;;
66139;SDS011;52945;51.908;8.364;2022-11-23T02:51:58;2.55;;;0.90;;
66139;SDS011;52945;51.908;8.364;2022-11-23T02:54:59;0.85;;;0.60;;
66139;SDS011;52945;51.908;8.364;2022-11-23T02:58:00;1.52;;;0.57;;
66139;SDS011;52945;51.908;8.364;2022-11-23T03:01:01;1.20;;;0.70;;
66139;SDS011;52945;51.908;8.364;2022-11-23T03:04:01;4.47;;;0.70;;
66139;SDS011;52945;51.908;8.364;2022-11-23T03:07:02;1.10;;;0.52;;
66139;SDS011;52945;51.908;8.364;2022-11-23T03:10:03;1.33;;;0.63;;
66139;SDS011;52945;51.908;8.364;2022-11-23T03:13:04;1.10;;;0.60;;
66139;SDS011;52945;51.908;8.364;2022-11-23T03:16:05;5.45;;;0.70;;
66139;SDS011;52945;51.908;8.364;2022-11-23T03:19:05;1.95;;;0.77;;
66139;SDS011;52945;51.908;8.364;2022-11-23T03:22:06;2.97;;;0.70;;
66139;SDS011;52945;51.908;8.364;2022-11-23T03:25:07;1.83;;;0.68;;
66139;SDS011;52945;51.908;8.364;2022-11-23T03:28:07;3.78;;;0.63;;
66139;SDS011;52945;51.908;8.364;2022-11-23T03:31:08;2.03;;;0.60;;
66139;SDS011;52945;51.908;8.364;2022-11-23T03:34:09;1.33;;;0.88;;
66139;SDS011;52945;51.908;8.364;2022-11-23T03:37:10;3.58;;;0.80;;
66139;SDS011;52945;51.908;8.364;2022-11-23T03:40:10;2.15;;;0.75;;
66139;SDS011;52945;51.908;8.364;2022-11-23T03:43:12;0.80;;;0.57;;
66139;SDS011;52945;51.908;8.364;2022-11-23T03:46:14;1.42;;;0.90;;
66139;SDS011;52945;51.908;8.364;2022-11-23T03:49:14;5.70;;;0.70;;
66139;SDS011;52945;51.908;8.364;2022-11-23T03:52:15;5.05;;;0.95;;
66139;SDS011;52945;51.908;8.364;2022-11-23T03:55:16;1.77;;;0.82;;
66139;SDS011;52945;51.908;8.364;2022-11-23T03:58:16;1.90;;;0.85;;
66139;SDS011;52945;51.908;8.364;2022-11-23T04:01:17;1.92;;;0.70;;
66139;SDS011;52945;51.908;8.364;2022-11-23T04:04:17;2.17;;;0.70;;
66139;SDS011;52945;51.908;8.364;2022-11-23T04:07:18;1.83;;;0.95;;
66139;SDS011;52945;51.908;8.364;2022-11-23T04:10:19;3.35;;;0.70;;
66139;SDS011;52945;51.908;8.364;2022-11-23T04:13:19;2.80;;;0.63;;
66139;SDS011;52945;51.908;8.364;2022-11-23T04:16:20;2.50;;;0.70;;
66139;SDS011;52945;51.908;8.364;2022-11-23T04:19:20;2.72;;;0.70;;
66139;SDS011;52945;51.908;8.364;2022-11-23T04:22:21;2.38;;;1.00;;
66139;SDS011;52945;51.908;8.364;2022-11-23T04:25:21;0.73;;;0.60;;
66139;SDS011;52945;51.908;8.364;2022-11-23T04:28:22;1.13;;;0.73;;
66139;SDS011;52945;51.908;8.364;2022-11-23T04:31:23;3.20;;;0.82;;
66139;SDS011;52945;51.908;8.364;2022-11-23T04:34:23;0.98;;;0.70;;
66139;SDS011;52945;51.908;8.364;2022-11-23T04:37:24;2.65;;;0.57;;
66139;SDS011;52945;51.908;8.364;2022-11-23T04:40:24;1.58;;;0.90;;
66139;SDS011;52945;51.908;8.364;2022-11-23T04:43:25;2.65;;;1.00;;
66139;SDS011;52945;51.908;8.364;2022-11-23T04:46:25;0.80;;;0.77;;
66139;SDS011;52945;51.908;8.364;2022-11-23T04:49:26;1.60;;;0.55;;
66139;SDS011;52945;51.908;8.364;2022-11-23T04:52:27;2.55;;;0.90;;
66139;SDS011;52945;51.908;8.364;2022-11-23T04:55:27;6.60;;;0.90;;
66139;SDS011;52945;51.908;8.364;2022-11-23T04:58:28;1.27;;;0.52;;
66139;SDS011;52945;51.908;8.364;2022-11-23T05:01:28;1.88;;;0.77;;
66139;SDS011;52945;51.908;8.364;2022-11-23T05:04:29;1.25;;;0.77;;
66139;SDS011;52945;51.908;8.364;2022-11-23T05:07:29;2.67;;;1.10;;
66139;SDS011;52945;51.908;8.364;2022-11-23T05:10:30;2.65;;;1.10;;
66139;SDS011;52945;51.908;8.364;2022-11-23T05:13:31;0.77;;;0.75;;
66139;SDS011;52945;51.908;8.364;2022-11-23T05:16:31;1.00;;;0.68;;
66139;SDS011;52945;51.908;8.364;2022-11-23T05:19:32;0.90;;;0.70;;
66139;SDS011;52945;51.908;8.364;2022-11-23T05:22:32;2.38;;;0.82;;
66139;SDS011;52945;51.908;8.364;2022-11-23T05:25:33;0.93;;;0.70;;
66139;SDS011;52945;51.908;8.364;2022-11-23T05:28:33;1.00;;;0.90;;
66139;SDS011;52945;51.908;8.364;2022-11-23T05:31:34;1.95;;;0.60;;
66139;SDS011;52945;51.908;8.364;2022-11-23T05:34:35;2.50;;;0.75;;
66139;SDS011;52945;51.908;8.364;2022-11-23T05:37:36;1.85;;;0.70;;
66139;SDS011;52945;51.908;8.364;2022-11-23T05:40:37;0.75;;;0.70;;
66139;SDS011;52945;51.908;8.364;2022-11-23T05:43:38;1.10;;;0.70;;
66139;SDS011;52945;51.908;8.364;2022-11-23T05:46:38;1.02;;;0.70;;
66139;SDS011;52945;51.908;8.364;2022-11-23T05:49:39;2.42;;;0.98;;
66139;SDS011;52945;51.908;8.364;2022-11-23T05:52:39;2.25;;;0.77;;
66139;SDS011;52945;51.908;8.364;2022-11-23T05:55:40;2.17;;;0.98;;
66139;SDS011;52945;51.908;8.364;2022-11-23T05:58:41;2.75;;;0.85;;
66139;SDS011;52945;51.908;8.364;2022-11-23T06:01:41;2.83;;;0.63;;
66139;SDS011;52945;51.908;8.364;2022-11-23T06:04:42;1.83;;;0.90;;
66139;SDS011;52945;51.908;8.364;2022-11-23T06:07:42;1.50;;;0.88;;
66139;SDS011;52945;51.908;8.364;2022-11-23T06:10:43;6.97;;;1.05;;
66139;SDS011;52945;51.908;8.364;2022-11-23T06:13:45;1.23;;;0.80;;
66139;SDS011;52945;51.908;8.364;2022-11-23T06:16:46;1.50;;;1.10;;
66139;SDS011;52945;51.908;8.364;2022-11-23T06:19:49;1.17;;;0.70;;
66139;SDS011;52945;51.908;8.364;2022-11-23T06:22:51;2.30;;;0.82;;
66139;SDS011;52945;51.908;8.364;2022-11-23T06:25:52;0.88;;;0.80;;
66139;SDS011;52945;51.908;8.364;2022-11-23T06:28:53;2.08;;;1.13;;
66139;SDS011;52945;51.908;8.364;2022-11-23T06:31:53;1.00;;;0.73;;
66139;SDS011;52945;51.908;8.364;2022-11-23T06:34:54;4.82;;;1.02;;
66139;SDS011;52945;51.908;8.364;2022-11-23T06:37:55;2.08;;;1.20;;
66139;SDS011;52945;51.908;8.364;2022-11-23T06:40:58;2.92;;;0.90;;
66139;SDS011;52945;51.908;8.364;2022-11-23T06:44:00;3.92;;;1.13;;
66139;SDS011;52945;51.908;8.364;2022-11-23T06:47:00;2.45;;;0.75;;
66139;SDS011;52945;51.908;8.364;2022-11-23T06:50:01;5.82;;;1.10;;
66139;SDS011;52945;51.908;8.364;2022-11-23T06:53:02;2.30;;;1.00;;
66139;SDS011;52945;51.908;8.364;2022-11-23T06:56:03;1.77;;;0.82;;
66139;SDS011;52945;51.908;8.364;2022-11-23T06:59:03;3.08;;;1.45;;
66139;SDS011;52945;51.908;8.364;2022-11-23T07:02:04;2.30;;;0.95;;
66139;SDS011;52945;51.908;8.364;2022-11-23T07:05:05;2.63;;;1.23;;
66139;SDS011;52945;51.908;8.364;2022-11-23T07:08:06;4.47;;;1.20;;
66139;SDS011;52945;51.908;8.364;2022-11-23T07:11:06;2.33;;;1.15;;
66139;SDS011;52945;51.908;8.364;2022-11-23T07:14:08;2.53;;;1.13;;
66139;SDS011;52945;51.908;8.364;2022-11-23T07:17:09;3.63;;;1.10;;
66139;SDS011;52945;51.908;8.364;2022-11-23T07:20:10;3.47;;;1.38;;
66139;SDS011;52945;51.908;8.364;2022-11-23T07:23:11;1.80;;;1.15;;
66139;SDS011;52945;51.908;8.364;2022-11-23T07:26:12;4.60;;;1.17;;
66139;SDS011;52945;51.908;8.364;2022-11-23T07:29:12;2.28;;;0.95;;
66139;SDS011;52945;51.908;8.364;2022-11-23T07:32:13;2.00;;;1.23;;
66139;SDS011;52945;51.908;8.364;2022-11-23T07:35:14;2.17;;;0.88;;
66139;SDS011;52945;51.908;8.364;2022-11-23T07:38:15;2.67;;;0.90;;
66139;SDS011;52945;51.908;8.364;2022-11-23T07:41:16;1.92;;;1.40;;
66139;SDS011;52945;51.908;8.364;2022-11-23T07:44:16;4.53;;;1.40;;
66139;SDS011;52945;51.908;8.364;2022-11-23T07:47:17;7.07;;;1.35;;
66139;SDS011;52945;51.908;8.364;2022-11-23T07:50:18;3.20;;;1.13;;
66139;SDS011;52945;51.908;8.364;2022-11-23T07:53:18;1.48;;;1.10;;
66139;SDS011;52945;51.908;8.364;2022-11-23T07:56:19;1.30;;;0.95;;
66139;SDS011;52945;51.908;8.364;2022-11-23T07:59:20;7.32;;;1.38;;
66139;SDS011;52945;51.908;8.364;2022-11-23T08:02:20;5.25;;;1.30;;
66139;SDS011;52945;51.908;8.364;2022-11-23T08:05:21;5.28;;;1.35;;
66139;SDS011;52945;51.908;8.364;2022-11-23T08:08:21;2.88;;;1.20;;
66139;SDS011;52945;51.908;8.364;2022-11-23T08:11:22;3.13;;;1.10;;
66139;SDS011;52945;51.908;8.364;2022-11-23T08:14:23;2.30;;;1.42;;
66139;SDS011;52945;51.908;8.364;2022-11-23T08:17:24;1.17;;;0.90;;
66139;SDS011;52945;51.908;8.364;2022-11-23T08:20:24;2.90;;;1.20;;
66139;SDS011;52945;51.908;8.364;2022-11-23T08:23:26;1.85;;;1.05;;
66139;SDS011;52945;51.908;8.364;2022-11-23T08:26:27;4.60;;;1.17;;
66139;SDS011;52945;51.908;8.364;2022-11-23T08:29:28;0.98;;;0.90;;
66139;SDS011;52945;51.908;8.364;2022-11-23T08:35:29;3.17;;;0.88;;
66139;SDS011;52945;51.908;8.364;2022-11-23T08:38:33;5.07;;;1.08;;
66139;SDS011;52945;51.908;8.364;2022-11-23T08:41:34;3.20;;;0.90;;
66139;SDS011;52945;51.908;8.364;2022-11-23T08:44:34;3.50;;;1.15;;
66139;SDS011;52945;51.908;8.364;2022-11-23T08:47:35;3.33;;;0.93;;
66139;SDS011;52945;51.908;8.364;2022-11-23T08:50:35;1.20;;;0.63;;
66139;SDS011;52945;51.908;8.364;2022-11-23T08:53:36;4.18;;;0.85;;
66139;SDS011;52945;51.908;8.364;2022-11-23T08:56:37;1.58;;;0.70;;
66139;SDS011;52945;51.908;8.364;2022-11-23T08:59:37;2.50;;;1.15;;
66139;SDS011;52945;51.908;8.364;2022-11-23T09:02:38;7.88;;;1.10;;
66139;SDS011;52945;51.908;8.364;2022-11-23T09:05:38;0.75;;;0.70;;
66139;SDS011;52945;51.908;8.364;2022-11-23T09:08:39;3.05;;;1.20;;
66139;SDS011;52945;51.908;8.364;2022-11-23T09:11:40;2.97;;;1.13;;
66139;SDS011;52945;51.908;8.364;2022-11-23T09:14:40;1.98;;;0.65;;
66139;SDS011;52945;51.908;8.364;2022-11-23T09:17:41;2.25;;;0.88;;
66139;SDS011;52945;51.908;8.364;2022-11-23T09:20:41;1.08;;;0.70;;
66139;SDS011;52945;51.908;8.364;2022-11-23T09:23:42;4.18;;;1.00;;
66139;SDS011;52945;51.908;8.364;2022-11-23T09:26:42;2.08;;;1.10;;
66139;SDS011;52945;51.908;8.364;2022-11-23T09:29:43;1.48;;;0.70;;
66139;SDS011;52945;51.908;8.364;2022-11-23T09:32:44;0.75;;;0.70;;
66139;SDS011;52945;51.908;8.364;2022-11-23T09:35:44;5.07;;;0.88;;
66139;SDS011;52945;51.908;8.364;2022-11-23T09:38:45;2.65;;;0.90;;
66139;SDS011;52945;51.908;8.364;2022-11-23T09:51:40;2.78;;;1.10;;
66139;SDS011;52945;51.908;8.364;2022-11-23T09:54:42;0.63;;;0.63;;
66139;SDS011;52945;51.908;8.364;2022-11-23T09:57:45;1.27;;;0.63;;
66139;SDS011;52945;51.908;8.364;2022-11-23T10:00:53;2.15;;;0.50;;
66139;SDS011;52945;51.908;8.364;2022-11-23T10:04:02;0.70;;;0.70;;
66139;SDS011;52945;51.908;8.364;2022-11-23T10:07:12;6.45;;;0.98;;
66139;SDS011;52945;51.908;8.364;2022-11-23T10:10:21;5.22;;;0.90;;
66139;SDS011;52945;51.908;8.364;2022-11-23T10:13:33;2.80;;;0.68;;
66139;SDS011;52945;51.908;8.364;2022-11-23T10:20:02;2.25;;;0.55;;
66139;SDS011;52945;51.908;8.364;2022-11-23T10:26:45;3.70;;;0.40;;
66139;SDS011;52945;51.908;8.364;2022-11-23T10:29:47;2.15;;;0.88;;
66139;SDS011;52945;51.908;8.364;2022-11-23T10:35:58;1.40;;;0.98;;
66139;SDS011;52945;51.908;8.364;2022-11-23T10:38:59;2.35;;;0.70;;
66139;SDS011;52945;51.908;8.364;2022-11-23T10:42:03;1.00;;;0.65;;
66139;SDS011;52945;51.908;8.364;2022-11-23T10:45:32;3.80;;;0.65;;
66139;SDS011;52945;51.908;8.364;2022-11-23T10:48:34;4.32;;;0.60;;
66139;SDS011;52945;51.908;8.364;2022-11-23T10:51:35;2.30;;;0.57;;
66139;SDS011;52945;51.908;8.364;2022-11-23T10:54:39;4.57;;;0.80;;
66139;SDS011;52945;51.908;8.364;2022-11-23T10:57:44;2.13;;;0.70;;
66139;SDS011;52945;51.908;8.364;2022-11-23T11:00:46;3.25;;;0.77;;
66139;SDS011;52945;51.908;8.364;2022-11-23T11:04:01;1.63;;;0.45;;
66139;SDS011;52945;51.908;8.364;2022-11-23T11:07:36;3.15;;;1.10;;
66139;SDS011;52945;51.908;8.364;2022-11-23T11:13:44;5.28;;;0.75;;
66139;SDS011;52945;51.908;8.364;2022-11-23T11:16:47;4.78;;;0.93;;
66139;SDS011;52945;51.908;8.364;2022-11-23T11:19:50;2.60;;;0.70;;
66139;SDS011;52945;51.908;8.364;2022-11-23T11:22:50;2.47;;;0.40;;
66139;SDS011;52945;51.908;8.364;2022-11-23T11:26:00;6.97;;;1.10;;
66139;SDS011;52945;51.908;8.364;2022-11-23T11:29:06;3.03;;;0.90;;
66139;SDS011;52945;51.908;8.364;2022-11-23T11:35:25;2.50;;;0.70;;
66139;SDS011;52945;51.908;8.364;2022-11-23T11:38:32;3.80;;;0.93;;
66139;SDS011;52945;51.908;8.364;2022-11-23T11:41:35;3.30;;;0.70;;
66139;SDS011;52945;51.908;8.364;2022-11-23T11:44:37;3.85;;;0.88;;
66139;SDS011;52945;51.908;8.364;2022-11-23T11:47:40;6.00;;;1.05;;
66139;SDS011;52945;51.908;8.364;2022-11-23T11:50:49;2.45;;;0.60;;
66139;SDS011;52945;51.908;8.364;2022-11-23T11:57:00;4.05;;;0.80;;
66139;SDS011;52945;51.908;8.364;2022-11-23T12:00:06;1.77;;;0.70;;
66139;SDS011;52945;51.908;8.364;2022-11-23T12:06:17;2.17;;;0.80;;
66139;SDS011;52945;51.908;8.364;2022-11-23T12:09:28;3.28;;;0.90;;
66139;SDS011;52945;51.908;8.364;2022-11-23T12:12:34;2.97;;;0.90;;
66139;SDS011;52945;51.908;8.364;2022-11-23T12:15:37;2.42;;;0.80;;
66139;SDS011;52945;51.908;8.364;2022-11-23T12:25:19;1.50;;;0.70;;
66139;SDS011;52945;51.908;8.364;2022-11-23T12:32:21;1.75;;;0.70;;
66139;SDS011;52945;51.908;8.364;2022-11-23T12:39:06;1.50;;;0.82;;
66139;SDS011;52945;51.908;8.364;2022-11-23T12:42:18;2.15;;;0.80;;
66139;SDS011;52945;51.908;8.364;2022-11-23T12:45:35;4.70;;;0.90;;
66139;SDS011;52945;51.908;8.364;2022-11-23T12:55:38;3.38;;;1.08;;
66139;SDS011;52945;51.908;8.364;2022-11-23T12:58:59;3.67;;;0.90;;
66139;SDS011;52945;51.908;8.364;2022-11-23T13:02:00;6.13;;;1.33;;
66139;SDS011;52945;51.908;8.364;2022-11-23T13:12:06;3.78;;;1.08;;
66139;SDS011;52945;51.908;8.364;2022-11-23T13:19:20;3.13;;;0.93;;
66139;SDS011;52945;51.908;8.364;2022-11-23T13:22:13;5.60;;;1.13;;
66139;SDS011;52945;51.908;8.364;2022-11-23T13:28:28;4.63;;;1.10;;
66139;SDS011;52945;51.908;8.364;2022-11-23T13:31:30;5.00;;;1.38;;
66139;SDS011;52945;51.908;8.364;2022-11-23T13:34:42;3.45;;;1.20;;
66139;SDS011;52945;51.908;8.364;2022-11-23T13:40:57;4.97;;;1.20;;
66139;SDS011;52945;51.908;8.364;2022-11-23T13:43:58;3.47;;;1.20;;
66139;SDS011;52945;51.908;8.364;2022-11-23T13:47:18;2.58;;;1.00;;
66139;SDS011;52945;51.908;8.364;2022-11-23T13:50:19;2.47;;;1.13;;
66139;SDS011;52945;51.908;8.364;2022-11-23T13:56:34;2.95;;;1.15;;
66139;SDS011;52945;51.908;8.364;2022-11-23T14:02:38;2.88;;;1.08;;
66139;SDS011;52945;51.908;8.364;2022-11-23T14:08:49;5.50;;;1.20;;
66139;SDS011;52945;51.908;8.364;2022-11-23T14:15:07;3.40;;;0.93;;
66139;SDS011;52945;51.908;8.364;2022-11-23T14:25:21;2.20;;;0.98;;
66139;SDS011;52945;51.908;8.364;2022-11-23T14:28:32;4.22;;;1.10;;
66139;SDS011;52945;51.908;8.364;2022-11-23T14:42:01;1.10;;;0.80;;
66139;SDS011;52945;51.908;8.364;2022-11-23T14:45:13;7.35;;;1.38;;
66139;SDS011;52945;51.908;8.364;2022-11-23T14:48:27;1.85;;;1.25;;
66139;SDS011;52945;51.908;8.364;2022-11-23T14:51:28;1.73;;;1.20;;
66139;SDS011;52945;51.908;8.364;2022-11-23T14:54:29;2.22;;;1.10;;
66139;SDS011;52945;51.908;8.364;2022-11-23T14:57:40;2.22;;;1.25;;
66139;SDS011;52945;51.908;8.364;2022-11-23T15:00:43;1.50;;;0.90;;
66139;SDS011;52945;51.908;8.364;2022-11-23T15:03:46;2.47;;;1.25;;
66139;SDS011;52945;51.908;8.364;2022-11-23T15:07:00;3.25;;;0.90;;
66139;SDS011;52945;51.908;8.364;2022-11-23T15:10:16;4.57;;;0.85;;
66139;SDS011;52945;51.908;8.364;2022-11-23T15:13:27;3.25;;;1.27;;
66139;SDS011;52945;51.908;8.364;2022-11-23T15:16:37;3.42;;;1.02;;
66139;SDS011;52945;51.908;8.364;2022-11-23T15:19:38;4.68;;;1.05;;
66139;SDS011;52945;51.908;8.364;2022-11-23T15:22:40;4.28;;;1.50;;
66139;SDS011;52945;51.908;8.364;2022-11-23T15:25:49;2.88;;;1.02;;
66139;SDS011;52945;51.908;8.364;2022-11-23T15:28:53;6.50;;;1.40;;
66139;SDS011;52945;51.908;8.364;2022-11-23T15:31:54;5.93;;;1.10;;
66139;SDS011;52945;51.908;8.364;2022-11-23T15:34:55;7.10;;;1.42;;
66139;SDS011;52945;51.908;8.364;2022-11-23T15:37:59;4.75;;;1.40;;
66139;SDS011;52945;51.908;8.364;2022-11-23T15:41:01;5.25;;;1.42;;
66139;SDS011;52945;51.908;8.364;2022-11-23T15:47:28;3.58;;;1.42;;
66139;SDS011;52945;51.908;8.364;2022-11-23T15:50:29;2.33;;;1.35;;
66139;SDS011;52945;51.908;8.364;2022-11-23T15:53:44;3.53;;;1.42;;
66139;SDS011;52945;51.908;8.364;2022-11-23T15:56:49;4.50;;;1.33;;
66139;SDS011;52945;51.908;8.364;2022-11-23T16:03:19;2.70;;;1.23;;
66139;SDS011;52945;51.908;8.364;2022-11-23T16:09:31;3.88;;;1.10;;
66139;SDS011;52945;51.908;8.364;2022-11-23T16:12:45;5.75;;;1.63;;
66139;SDS011;52945;51.908;8.364;2022-11-23T16:15:56;3.42;;;1.00;;
66139;SDS011;52945;51.908;8.364;2022-11-23T16:18:58;1.52;;;0.85;;
66139;SDS011;52945;51.908;8.364;2022-11-23T16:22:00;4.60;;;1.38;;
66139;SDS011;52945;51.908;8.364;2022-11-23T16:25:06;3.05;;;1.10;;
66139;SDS011;52945;51.908;8.364;2022-11-23T16:28:23;2.33;;;1.17;;
66139;SDS011;52945;51.908;8.364;2022-11-23T16:31:28;1.40;;;1.20;;
66139;SDS011;52945;51.908;8.364;2022-11-23T16:34:39;5.13;;;1.42;;
66139;SDS011;52945;51.908;8.364;2022-11-23T16:37:40;3.45;;;1.55;;
66139;SDS011;52945;51.908;8.364;2022-11-23T16:40:40;5.38;;;1.48;;
66139;SDS011;52945;51.908;8.364;2022-11-23T16:43:42;4.22;;;1.30;;
66139;SDS011;52945;51.908;8.364;2022-11-23T16:46:43;6.55;;;1.50;;
66139;SDS011;52945;51.908;8.364;2022-11-23T16:49:45;2.58;;;1.33;;
66139;SDS011;52945;51.908;8.364;2022-11-23T16:52:47;4.90;;;1.52;;
66139;SDS011;52945;51.908;8.364;2022-11-23T16:55:50;5.60;;;1.50;;
66139;SDS011;52945;51.908;8.364;2022-11-23T16:58:52;6.70;;;1.83;;
66139;SDS011;52945;51.908;8.364;2022-11-23T17:04:54;4.15;;;1.42;;
66139;SDS011;52945;51.908;8.364;2022-11-23T17:07:55;6.93;;;1.98;;
66139;SDS011;52945;51.908;8.364;2022-11-23T17:10:55;3.83;;;2.08;;
66139;SDS011;52945;51.908;8.364;2022-11-23T17:13:56;6.85;;;2.30;;
66139;SDS011;52945;51.908;8.364;2022-11-23T17:16:57;5.97;;;2.10;;
66139;SDS011;52945;51.908;8.364;2022-11-23T17:19:58;4.18;;;1.80;;
66139;SDS011;52945;51.908;8.364;2022-11-23T17:22:58;4.85;;;2.35;;
66139;SDS011;52945;51.908;8.364;2022-11-23T17:26:00;4.53;;;2.22;;
66139;SDS011;52945;51.908;8.364;2022-11-23T17:29:03;7.50;;;2.28;;
66139;SDS011;52945;51.908;8.364;2022-11-23T17:32:07;6.30;;;2.53;;
66139;SDS011;52945;51.908;8.364;2022-11-23T17:35:12;2.58;;;1.88;;
66139;SDS011;52945;51.908;8.364;2022-11-23T17:38:14;6.53;;;2.30;;
66139;SDS011;52945;51.908;8.364;2022-11-23T17:41:18;5.20;;;1.80;;
66139;SDS011;52945;51.908;8.364;2022-11-23T17:44:19;5.20;;;1.88;;
66139;SDS011;52945;51.908;8.364;2022-11-23T17:47:23;7.03;;;2.47;;
66139;SDS011;52945;51.908;8.364;2022-11-23T17:50:27;6.03;;;1.85;;
66139;SDS011;52945;51.908;8.364;2022-11-23T17:53:28;5.28;;;2.15;;
66139;SDS011;52945;51.908;8.364;2022-11-23T17:56:28;5.68;;;1.92;;
66139;SDS011;52945;51.908;8.364;2022-11-23T17:59:29;5.35;;;1.85;;
66139;SDS011;52945;51.908;8.364;2022-11-23T18:02:30;7.50;;;2.22;;
66139;SDS011;52945;51.908;8.364;2022-11-23T18:05:30;2.92;;;1.90;;
66139;SDS011;52945;51.908;8.364;2022-11-23T18:08:31;7.03;;;2.25;;
66139;SDS011;52945;51.908;8.364;2022-11-23T18:11:32;5.78;;;2.25;;
66139;SDS011;52945;51.908;8.364;2022-11-23T18:14:32;5.70;;;2.15;;
66139;SDS011;52945;51.908;8.364;2022-11-23T18:17:33;6.78;;;2.83;;
66139;SDS011;52945;51.908;8.364;2022-11-23T18:20:34;6.82;;;2.33;;
66139;SDS011;52945;51.908;8.364;2022-11-23T18:23:34;8.60;;;2.45;;
66139;SDS011;52945;51.908;8.364;2022-11-23T18:26:35;7.80;;;2.80;;
66139;SDS011;52945;51.908;8.364;2022-11-23T18:29:36;8.93;;;2.45;;
66139;SDS011;52945;51.908;8.364;2022-11-23T18:32:39;8.85;;;3.10;;
66139;SDS011;52945;51.908;8.364;2022-11-23T18:35:39;6.05;;;3.08;;
66139;SDS011;52945;51.908;8.364;2022-11-23T18:38:40;6.57;;;3.15;;
66139;SDS011;52945;51.908;8.364;2022-11-23T18:41:44;7.35;;;2.50;;
66139;SDS011;52945;51.908;8.364;2022-11-23T18:44:45;8.48;;;2.67;;
66139;SDS011;52945;51.908;8.364;2022-11-23T18:47:45;6.15;;;3.10;;
66139;SDS011;52945;51.908;8.364;2022-11-23T18:50:46;6.93;;;2.90;;
66139;SDS011;52945;51.908;8.364;2022-11-23T18:53:47;5.63;;;2.35;;
66139;SDS011;52945;51.908;8.364;2022-11-23T18:56:49;5.05;;;2.38;;
66139;SDS011;52945;51.908;8.364;2022-11-23T18:59:50;5.78;;;2.72;;
66139;SDS011;52945;51.908;8.364;2022-11-23T19:02:54;5.97;;;2.42;;
66139;SDS011;52945;51.908;8.364;2022-11-23T19:05:59;11.13;;;2.88;;
66139;SDS011;52945;51.908;8.364;2022-11-23T19:09:01;6.82;;;3.00;;
66139;SDS011;52945;51.908;8.364;2022-11-23T19:12:01;5.25;;;2.47;;
66139;SDS011;52945;51.908;8.364;2022-11-23T19:15:02;10.52;;;2.63;;
66139;SDS011;52945;51.908;8.364;2022-11-23T19:18:05;9.10;;;2.40;;
66139;SDS011;52945;51.908;8.364;2022-11-23T19:21:16;5.15;;;2.22;;
66139;SDS011;52945;51.908;8.364;2022-11-23T19:24:17;9.88;;;2.83;;
66139;SDS011;52945;51.908;8.364;2022-11-23T19:27:18;6.03;;;2.45;;
66139;SDS011;52945;51.908;8.364;2022-11-23T19:30:19;3.47;;;2.00;;
66139;SDS011;52945;51.908;8.364;2022-11-23T19:33:19;6.03;;;2.35;;
66139;SDS011;52945;51.908;8.364;2022-11-23T19:36:21;5.95;;;2.17;;
66139;SDS011;52945;51.908;8.364;2022-11-23T19:39:23;5.15;;;2.20;;
66139;SDS011;52945;51.908;8.364;2022-11-23T19:42:23;3.65;;;1.85;;
66139;SDS011;52945;51.908;8.364;2022-11-23T19:45:24;5.57;;;2.10;;
66139;SDS011;52945;51.908;8.364;2022-11-23T19:48:25;5.65;;;1.80;;
66139;SDS011;52945;51.908;8.364;2022-11-23T19:51:26;6.32;;;2.20;;
66139;SDS011;52945;51.908;8.364;2022-11-23T19:54:27;6.00;;;2.20;;
66139;SDS011;52945;51.908;8.364;2022-11-23T19:57:28;6.20;;;2.22;;
66139;SDS011;52945;51.908;8.364;2022-11-23T20:00:28;7.90;;;2.30;;
66139;SDS011;52945;51.908;8.364;2022-11-23T20:03:29;5.22;;;1.98;;
66139;SDS011;52945;51.908;8.364;2022-11-23T20:06:33;4.85;;;2.15;;
66139;SDS011;52945;51.908;8.364;2022-11-23T20:09:35;6.88;;;2.17;;
66139;SDS011;52945;51.908;8.364;2022-11-23T20:12:36;6.90;;;2.42;;
66139;SDS011;52945;51.908;8.364;2022-11-23T20:15:37;2.75;;;1.83;;
66139;SDS011;52945;51.908;8.364;2022-11-23T20:18:38;4.25;;;2.08;;
66139;SDS011;52945;51.908;8.364;2022-11-23T20:21:40;6.10;;;1.90;;
66139;SDS011;52945;51.908;8.364;2022-11-23T20:24:40;4.00;;;2.30;;